Time;durP1;ratioP1;P1;durP2;ratioP2;P2;SDS_P1;SDS_P2;PMS_P1;PMS_P2;Temp;Humidity;BMP_temperature;BMP_pressure;BME280_temperature;BME280_humidity;BME280_pressure;Samples;Min_cycle;Max_cycle;Signal;HPM_P1;HPM_P2
2024/02/19 00:01:20;;;;;;;23.25;7.50;;;;;;;7.62;100.00;102698.03;10444803;28;20060;-76
2024/02/19 00:06:22;;;;;;;32.25;8.23;;;;;;;7.58;100.00;102702.00;10443964;28;20438;-76
2024/02/19 00:11:23;;;;;;;23.15;6.97;;;;;;;7.54;100.00;102696.03;10461383;28;20045;-77
2024/02/19 00:16:23;;;;;;;33.90;8.00;;;;;;;7.62;100.00;102696.19;10459126;28;20081;-76
2024/02/19 00:21:23;;;;;;;41.80;8.10;;;;;;;7.80;100.00;102695.56;10460194;28;20112;-76
2024/02/19 00:26:24;;;;;;;25.33;6.57;;;;;;;7.90;100.00;102693.75;10460097;28;20036;-76
2024/02/19 00:31:24;;;;;;;37.20;8.48;;;;;;;7.98;100.00;102704.75;10459218;28;20036;-76
2024/02/19 00:36:25;;;;;;;19.85;6.40;;;;;;;8.04;100.00;102712.28;10459902;28;20046;-76
2024/02/19 00:41:25;;;;;;;23.25;7.20;;;;;;;8.09;100.00;102715.41;10459432;28;20057;-76
2024/02/19 00:46:25;;;;;;;42.97;7.57;;;;;;;8.14;100.00;102710.47;10459835;28;20071;-75
2024/02/19 00:51:26;;;;;;;35.10;10.05;;;;;;;8.18;100.00;102700.25;10459567;28;20129;-75
2024/02/19 00:56:26;;;;;;;19.10;5.50;;;;;;;8.20;100.00;102703.69;10458248;28;20122;-75
2024/02/19 01:01:27;;;;;;;34.65;8.38;;;;;;;8.26;100.00;102708.50;10440691;28;20107;-75
2024/02/19 01:06:28;;;;;;;22.23;6.10;;;;;;;8.25;100.00;102706.81;10458632;28;20045;-75
2024/02/19 01:11:28;;;;;;;32.72;8.75;;;;;;;8.27;100.00;102695.88;10458299;28;20449;-75
2024/02/19 01:16:29;;;;;;;20.85;6.68;;;;;;;8.28;100.00;102706.53;10440160;28;20037;-76
2024/02/19 01:21:30;;;;;;;23.08;6.60;;;;;;;8.29;100.00;102702.81;10457217;28;20052;-76
2024/02/19 01:26:31;;;;;;;29.98;7.35;;;;;;;8.31;100.00;102708.94;10441718;28;20025;-75
2024/02/19 01:31:31;;;;;;;18.40;5.70;;;;;;;8.34;100.00;102705.13;10459732;28;20047;-76
2024/02/19 01:36:32;;;;;;;21.30;5.47;;;;;;;8.36;100.00;102708.56;10458148;28;20073;-75
2024/02/19 01:41:32;;;;;;;34.55;6.32;;;;;;;8.39;100.00;102713.69;10457558;28;20127;-75
2024/02/19 01:46:33;;;;;;;26.95;7.25;;;;;;;8.40;100.00;102712.72;10458590;28;20095;-75
2024/02/19 01:51:33;;;;;;;32.70;6.97;;;;;;;8.41;100.00;102711.72;10456494;28;20128;-74
2024/02/19 01:56:34;;;;;;;28.60;7.85;;;;;;;8.38;100.00;102712.84;10439143;28;20477;-76
2024/02/19 02:01:36;;;;;;;12.30;4.22;;;;;;;8.37;100.00;102696.75;10457015;28;20095;-74
2024/02/19 02:06:36;;;;;;;14.73;5.50;;;;;;;8.41;100.00;102705.47;10441254;28;20037;-76
2024/02/19 02:11:37;;;;;;;19.27;6.78;;;;;;;8.40;100.00;102682.16;10440662;28;20036;-75
2024/02/19 02:16:37;;;;;;;18.88;6.15;;;;;;;8.39;100.00;102686.69;10459905;28;20506;-75
2024/02/19 02:21:41;;;;;;;30.58;6.95;;;;;;;8.42;100.00;102697.19;10457283;28;20049;-74
2024/02/19 02:26:41;;;;;;;19.15;6.75;;;;;;;8.45;100.00;102690.69;10454747;28;20025;-74
2024/02/19 02:31:42;;;;;;;15.73;6.28;;;;;;;8.45;100.00;102696.94;10455782;28;20032;-75
2024/02/19 02:36:42;;;;;;;21.05;6.45;;;;;;;8.46;100.00;102693.25;10454704;28;20136;-74
2024/02/19 02:41:43;;;;;;;27.10;7.05;;;;;;;8.47;100.00;102697.66;10455456;28;20158;-75
2024/02/19 02:46:43;;;;;;;24.70;6.25;;;;;;;8.46;100.00;102682.47;10454182;28;20063;-75
2024/02/19 02:51:44;;;;;;;19.48;6.55;;;;;;;8.43;100.00;102685.44;10453601;28;20040;-74
2024/02/19 02:56:44;;;;;;;28.13;5.63;;;;;;;8.48;100.00;102679.59;10455113;28;20065;-74
2024/02/19 03:01:44;;;;;;;17.95;5.35;;;;;;;8.53;100.00;102672.78;10455112;28;20414;-75
2024/02/19 03:06:45;;;;;;;18.92;6.38;;;;;;;8.61;100.00;102670.25;10454160;28;20036;-75
2024/02/19 03:11:45;;;;;;;12.40;4.97;;;;;;;8.65;100.00;102670.81;10455538;28;20067;-75
2024/02/19 03:16:46;;;;;;;12.35;3.45;;;;;;;8.70;100.00;102656.88;10453432;28;20040;-74
2024/02/19 03:21:46;;;;;;;12.38;4.32;;;;;;;8.74;100.00;102652.88;10453381;28;20082;-74
2024/02/19 03:26:47;;;;;;;17.13;5.70;;;;;;;8.80;100.00;102646.91;10454126;28;20104;-75
2024/02/19 03:31:47;;;;;;;11.13;4.20;;;;;;;8.85;100.00;102656.31;10454196;28;20496;-74
2024/02/19 03:36:49;;;;;;;14.77;3.70;;;;;;;8.91;100.00;102659.44;10454760;28;20549;-74
2024/02/19 03:41:49;;;;;;;11.02;3.83;;;;;;;8.94;100.00;102653.75;10420119;28;20040;-75
2024/02/19 03:46:50;;;;;;;15.90;5.50;;;;;;;9.01;100.00;102661.13;10437731;28;20408;-74
2024/02/19 03:51:50;;;;;;;23.33;6.03;;;;;;;9.03;100.00;102669.06;10460273;28;20056;-75
2024/02/19 03:56:51;;;;;;;11.55;5.07;;;;;;;9.08;100.00;102659.56;10461024;28;20041;-74
2024/02/19 04:01:51;;;;;;;12.48;4.03;;;;;;;9.10;100.00;102656.72;10461847;28;20522;-73
2024/02/19 04:06:52;;;;;;;8.95;6.10;;;;;;;9.12;100.00;102660.09;10461257;28;20426;-75
2024/02/19 04:11:52;;;;;;;20.52;5.85;;;;;;;9.14;100.00;102668.09;10461382;28;20037;-73
2024/02/19 04:16:53;;;;;;;11.55;4.65;;;;;;;9.18;100.00;102664.09;10444300;28;20135;-74
2024/02/19 04:21:53;;;;;;;20.15;4.07;;;;;;;9.18;100.00;102675.75;10461005;28;20098;-74
2024/02/19 04:26:54;;;;;;;7.75;4.53;;;;;;;9.19;100.00;102671.19;10461079;28;20033;-75
2024/02/19 04:31:54;;;;;;;10.48;4.00;;;;;;;9.17;100.00;102674.06;10460310;28;20037;-74
2024/02/19 04:36:54;;;;;;;8.63;4.88;;;;;;;9.19;100.00;102673.91;10459928;28;20049;-74
2024/02/19 04:41:55;;;;;;;15.32;5.38;;;;;;;9.21;100.00;102667.34;10461635;28;20036;-75
2024/02/19 04:46:56;;;;;;;25.58;6.75;;;;;;;9.19;100.00;102663.09;10459810;28;20072;-74
2024/02/19 04:51:57;;;;;;;13.95;5.88;;;;;;;9.18;100.00;102661.38;10457465;28;20116;-73
2024/02/19 04:56:57;;;;;;;6.97;4.25;;;;;;;9.16;100.00;102648.03;10457755;28;20039;-75
2024/02/19 05:01:59;;;;;;;15.85;5.03;;;;;;;9.12;100.00;102646.59;10457021;28;20049;-74
2024/02/19 05:06:59;;;;;;;8.60;4.03;;;;;;;9.15;100.00;102646.31;10458099;28;20427;-74
2024/02/19 05:12:00;;;;;;;13.77;4.55;;;;;;;9.17;100.00;102654.28;10459165;28;20040;-75
2024/02/19 05:17:00;;;;;;;17.73;6.07;;;;;;;9.16;100.00;102652.59;10458127;28;20060;-75
2024/02/19 05:22:00;;;;;;;21.60;5.53;;;;;;;9.12;100.00;102646.59;10456351;28;20059;-74
2024/02/19 05:27:01;;;;;;;15.80;5.35;;;;;;;9.08;100.00;102651.44;10456711;28;20059;-74
2024/02/19 05:32:01;;;;;;;18.83;5.38;;;;;;;9.07;100.00;102652.44;10455967;28;20061;-73
2024/02/19 05:37:02;;;;;;;18.48;5.57;;;;;;;9.08;100.00;102651.44;10458316;28;20134;-74
2024/02/19 05:42:03;;;;;;;12.23;6.25;;;;;;;9.06;100.00;102639.94;10457243;28;20036;-73
2024/02/19 05:47:04;;;;;;;13.57;5.03;;;;;;;9.04;100.00;102650.03;10456354;28;20041;-73
2024/02/19 05:52:05;;;;;;;24.65;5.90;;;;;;;9.08;100.00;102648.75;10456953;28;20064;-73
2024/02/19 05:57:06;;;;;;;10.50;5.07;;;;;;;9.13;100.00;102636.66;10456596;28;20039;-73
2024/02/19 06:02:07;;;;;;;11.18;3.88;;;;;;;9.13;100.00;102628.56;10455400;28;20120;-73
2024/02/19 06:07:07;;;;;;;13.32;5.38;;;;;;;9.12;100.00;102634.94;10455749;28;20033;-74
2024/02/19 06:12:08;;;;;;;9.45;4.28;;;;;;;9.08;100.00;102640.63;10455671;28;20127;-74
2024/02/19 06:17:08;;;;;;;25.10;6.03;;;;;;;9.08;100.00;102646.03;10455938;28;20033;-73
2024/02/19 06:22:10;;;;;;;21.52;6.47;;;;;;;9.06;100.00;102650.75;10455935;28;20056;-73
2024/02/19 06:27:10;;;;;;;15.52;4.72;;;;;;;9.09;100.00;102652.28;10456100;28;20036;-73
2024/02/19 06:32:11;;;;;;;12.50;4.50;;;;;;;9.04;100.00;102643.78;10455423;28;20370;-73
2024/02/19 06:37:11;;;;;;;17.88;6.82;;;;;;;9.05;100.00;102629.25;10454793;28;20139;-74
2024/02/19 06:42:11;;;;;;;10.82;4.43;;;;;;;9.06;100.00;102628.25;10454156;28;20037;-74
2024/02/19 06:47:13;;;;;;;10.15;4.68;;;;;;;9.08;100.00;102639.78;10455271;28;20536;-74
2024/02/19 06:52:13;;;;;;;7.18;4.70;;;;;;;9.06;100.00;102639.94;10455168;28;20025;-73
2024/02/19 06:57:14;;;;;;;17.48;5.95;;;;;;;9.06;100.00;102633.66;10456130;28;20087;-73
2024/02/19 07:02:14;;;;;;;5.88;4.55;;;;;;;9.00;100.00;102616.19;10455656;28;20068;-73
2024/02/19 07:07:14;;;;;;;17.70;5.00;;;;;;;8.88;100.00;102606.56;10455232;28;20082;-73
2024/02/19 07:12:16;;;;;;;20.30;7.30;;;;;;;8.85;100.00;102617.63;10454359;28;20431;-73
2024/02/19 07:17:16;;;;;;;16.45;6.93;;;;;;;9.01;100.00;102617.06;10453281;28;20389;-73
2024/02/19 07:22:16;;;;;;;16.17;6.25;;;;;;;9.31;100.00;102606.00;10436586;28;20116;-73
2024/02/19 07:27:17;;;;;;;20.83;6.82;;;;;;;9.82;100.00;102606.50;10462275;28;20033;-73
2024/02/19 07:32:18;;;;;;;24.95;6.93;;;;;;;9.75;100.00;102610.81;10463666;28;20469;-74
2024/02/19 07:37:18;;;;;;;13.27;5.05;;;;;;;9.60;100.00;102623.13;10463144;28;20091;-73
2024/02/19 07:42:18;;;;;;;21.52;6.70;;;;;;;9.47;100.00;102616.19;10462395;28;20048;-73
2024/02/19 07:47:19;;;;;;;8.63;5.70;;;;;;;9.39;100.00;102629.63;10461285;28;20064;-73
2024/02/19 07:52:19;;;;;;;16.25;5.82;;;;;;;9.44;100.00;102646.22;10461400;28;20033;-74
2024/02/19 07:57:20;;;;;;;28.38;6.30;;;;;;;9.52;100.00;102653.63;10460050;28;20064;-75
2024/02/19 08:02:20;;;;;;;9.60;5.10;;;;;;;9.63;100.00;102661.53;10461033;28;20041;-73
2024/02/19 08:07:20;;;;;;;17.02;5.90;;;;;;;9.67;100.00;102665.69;10460872;28;20381;-73
2024/02/19 08:12:23;;;;;;;26.75;6.32;;;;;;;9.80;100.00;102670.75;10460794;28;20048;-73
2024/02/19 08:17:23;;;;;;;11.32;5.57;;;;;;;9.85;100.00;102676.53;10461417;28;20114;-73
2024/02/19 08:22:24;;;;;;;14.60;5.43;;;;;;;9.87;100.00;102693.50;10459261;28;20097;-74
2024/02/19 08:27:24;;;;;;;17.35;5.45;;;;;;;9.90;100.00;102679.66;10459815;28;20040;-74
2024/02/19 08:32:24;;;;;;;7.70;4.45;;;;;;;10.02;100.00;102675.75;10461742;28;20373;-76
2024/02/19 08:37:25;;;;;;;19.02;5.10;;;;;;;10.17;100.00;102676.09;10458542;28;20057;-74
2024/02/19 08:42:25;;;;;;;13.13;5.35;;;;;;;10.28;100.00;102683.22;10441993;28;20128;-73
2024/02/19 08:47:25;;;;;;;13.73;4.80;;;;;;;10.27;100.00;102681.47;10457702;28;20429;-73
2024/02/19 08:52:26;;;;;;;8.38;4.75;;;;;;;10.17;100.00;102677.94;10458229;28;20036;-73
2024/02/19 08:57:26;;;;;;;17.65;4.43;;;;;;;10.07;100.00;102675.31;10458589;28;20402;-74
2024/02/19 09:02:27;;;;;;;13.05;4.43;;;;;;;10.12;100.00;102666.75;10459167;28;20040;-73
2024/02/19 09:07:27;;;;;;;11.27;5.40;;;;;;;10.24;100.00;102660.09;10459243;28;20029;-73
2024/02/19 09:12:28;;;;;;;9.85;3.95;;;;;;;10.36;100.00;102645.38;10457871;28;20390;-73
2024/02/19 09:17:28;;;;;;;8.68;3.97;;;;;;;10.38;100.00;102651.50;10458871;28;20056;-73
2024/02/19 09:22:28;;;;;;;4.13;3.15;;;;;;;10.38;100.00;102646.06;10457849;28;20116;-75
2024/02/19 09:27:29;;;;;;;7.18;3.30;;;;;;;10.44;100.00;102647.31;10457960;28;20029;-75
2024/02/19 09:32:30;;;;;;;14.30;4.70;;;;;;;10.48;100.00;102636.00;10457136;28;20079;-73
2024/02/19 09:37:30;;;;;;;10.98;3.47;;;;;;;10.69;100.00;102624.03;10459253;28;20049;-73
2024/02/19 09:42:31;;;;;;;7.57;3.38;;;;;;;11.12;100.00;102625.03;10457551;28;20049;-74
2024/02/19 09:47:32;;;;;;;13.30;3.17;;;;;;;11.43;100.00;102624.56;10457660;28;20373;-74
2024/02/19 09:52:32;;;;;;;8.32;4.00;;;;;;;11.55;100.00;102624.13;10439511;28;20379;-74
2024/02/19 09:57:33;;;;;;;18.27;4.65;;;;;;;11.64;100.00;102611.41;10457514;28;20033;-73
2024/02/19 10:02:33;;;;;;;5.47;3.30;;;;;;;11.81;100.00;102607.78;10456932;28;20064;-73
2024/02/19 10:07:34;;;;;;;17.63;4.32;;;;;;;12.38;100.00;102603.53;10456974;28;20040;-73
2024/02/19 10:12:34;;;;;;;7.35;3.28;;;;;;;12.66;100.00;102613.06;10456872;28;20033;-74
2024/02/19 10:17:34;;;;;;;7.13;4.10;;;;;;;12.41;100.00;102611.34;10456290;28;20029;-73
2024/02/19 10:22:35;;;;;;;11.18;3.88;;;;;;;12.27;100.00;102602.00;10455882;28;20468;-74
2024/02/19 10:27:35;;;;;;;11.05;4.30;;;;;;;12.26;100.00;102600.31;10454413;28;20389;-73
2024/02/19 10:32:36;;;;;;;9.10;4.53;;;;;;;12.19;100.00;102593.81;10454191;28;20495;-74
2024/02/19 10:37:36;;;;;;;15.50;3.72;;;;;;;11.97;100.00;102593.44;10456330;28;20053;-75
2024/02/19 10:42:37;;;;;;;13.18;4.47;;;;;;;11.72;100.00;102594.34;10455481;28;20037;-73
2024/02/19 10:47:38;;;;;;;15.32;4.15;;;;;;;11.66;100.00;102595.84;10455270;28;20044;-75
2024/02/19 10:52:39;;;;;;;6.15;3.78;;;;;;;11.60;100.00;102600.03;10455042;28;20091;-75
2024/02/19 10:57:52;;;;;;;15.15;3.67;;;;;;;11.54;100.00;102599.84;10453241;28;20029;-73
2024/02/19 11:03:06;;;;;;;15.43;5.32;;;;;;;11.49;100.00;102591.38;10453798;28;20036;-73
2024/02/19 11:08:22;;;;;;;14.57;4.30;;;;;;;11.62;100.00;102594.47;10453341;28;20028;-75
2024/02/19 11:13:26;;;;;;;12.73;4.88;;;;;;;11.60;100.00;102572.91;10453451;28;20107;-74
2024/02/19 11:18:29;;;;;;;10.82;4.32;;;;;;;11.69;100.00;102572.94;10453971;28;20044;-73
2024/02/19 11:23:30;;;;;;;13.32;6.00;;;;;;;11.62;100.00;102567.34;10455141;28;20037;-76
2024/02/19 11:28:32;;;;;;;14.85;6.10;;;;;;;11.45;100.00;102558.25;10453063;28;20025;-74
2024/02/19 11:33:33;;;;;;;18.38;5.75;;;;;;;11.33;100.00;102554.16;10453081;28;20155;-74
2024/02/19 11:38:34;;;;;;;13.45;6.68;;;;;;;11.25;100.00;102518.84;10454282;28;20103;-74
2024/02/19 11:43:35;;;;;;;18.13;5.75;;;;;;;11.20;100.00;102540.16;10454006;28;20067;-74
2024/02/19 11:48:36;;;;;;;22.00;6.45;;;;;;;11.15;100.00;102551.50;10452548;28;20029;-74
2024/02/19 11:53:36;;;;;;;14.18;4.60;;;;;;;10.97;100.00;102548.00;10452487;28;20052;-73
2024/02/19 11:58:37;;;;;;;11.38;6.45;;;;;;;10.71;100.00;102543.41;10453381;28;20064;-74
2024/02/19 12:03:38;;;;;;;8.93;5.28;;;;;;;10.42;100.00;102539.13;10452914;28;20025;-75
2024/02/19 12:08:39;;;;;;;15.05;4.70;;;;;;;10.16;100.00;102547.16;10435954;28;20033;-73
2024/02/19 12:13:39;;;;;;;11.95;4.72;;;;;;;10.15;100.00;102541.91;10442399;28;20044;-74
2024/02/19 12:18:41;;;;;;;8.55;5.10;;;;;;;10.09;100.00;102523.59;10461095;28;20060;-75
2024/02/19 12:23:43;;;;;;;12.38;5.93;;;;;;;10.11;100.00;102526.97;10460000;28;20430;-73
2024/02/19 12:28:44;;;;;;;15.25;6.85;;;;;;;10.07;100.00;102528.28;10460352;28;20044;-74
2024/02/19 12:33:44;;;;;;;8.45;5.07;;;;;;;9.95;100.00;102524.94;10460169;28;20037;-73
2024/02/19 12:38:45;;;;;;;15.20;5.68;;;;;;;9.93;100.00;102521.56;10458969;28;20473;-73
2024/02/19 12:43:46;;;;;;;19.35;7.00;;;;;;;9.97;100.00;102523.78;10459889;28;20029;-75
2024/02/19 12:48:46;;;;;;;15.50;5.93;;;;;;;9.96;100.00;102515.84;10459400;28;20032;-74
2024/02/19 12:53:47;;;;;;;13.50;5.38;;;;;;;9.99;100.00;102504.72;10459881;28;20045;-74
2024/02/19 12:58:47;;;;;;;14.43;5.35;;;;;;;10.16;100.00;102503.00;10457965;28;20393;-73
2024/02/19 13:03:48;;;;;;;15.40;5.18;;;;;;;10.17;100.00;102496.56;10458253;28;20127;-73
2024/02/19 13:08:49;;;;;;;6.97;4.55;;;;;;;10.28;100.00;102485.53;10458442;28;20041;-74
2024/02/19 13:13:49;;;;;;;13.45;5.32;;;;;;;10.41;100.00;102482.44;10457270;28;20037;-74
2024/02/19 13:18:51;;;;;;;19.52;5.53;;;;;;;10.41;100.00;102482.44;10458387;28;20037;-74
2024/02/19 13:23:51;;;;;;;19.27;5.90;;;;;;;10.54;100.00;102482.88;10458227;28;20406;-74
2024/02/19 13:28:52;;;;;;;9.85;5.15;;;;;;;10.63;100.00;102484.63;10457394;28;20072;-73
2024/02/19 13:33:52;;;;;;;12.15;5.22;;;;;;;10.60;100.00;102487.66;10459215;28;20540;-74
2024/02/19 13:38:52;;;;;;;12.25;6.30;;;;;;;10.59;100.00;102495.91;10457217;28;20049;-76
2024/02/19 13:43:53;;;;;;;24.70;7.38;;;;;;;10.47;100.00;102474.53;10458176;28;20108;-76
2024/02/19 13:49:06;;;;;;;10.65;5.88;;;;;;;10.58;100.00;102481.53;10456114;28;20433;-74
2024/02/19 13:54:07;;;;;;;10.98;5.38;;;;;;;10.70;100.00;102479.41;10456747;28;20049;-74
2024/02/19 13:59:10;;;;;;;12.35;5.28;;;;;;;10.44;100.00;102477.53;10455578;28;20083;-74
2024/02/19 14:04:10;;;;;;;14.63;4.50;;;;;;;10.33;100.00;102488.63;10456803;28;20040;-74
2024/02/19 14:09:11;;;;;;;10.68;4.70;;;;;;;10.24;100.00;102475.97;10457738;28;20037;-74
2024/02/19 14:14:11;;;;;;;8.68;3.92;;;;;;;10.19;100.00;102479.16;10456417;28;20094;-74
2024/02/19 14:19:12;;;;;;;12.57;6.07;;;;;;;10.06;100.00;102483.28;10454889;28;20029;-73
2024/02/19 14:24:12;;;;;;;28.75;5.90;;;;;;;9.85;100.00;102481.72;10455837;28;20064;-73
2024/02/19 14:29:13;;;;;;;17.48;4.82;;;;;;;9.75;100.00;102491.78;10456820;28;20404;-75
2024/02/19 14:34:13;;;;;;;8.80;4.43;;;;;;;9.72;100.00;102483.97;10454454;28;20047;-73
2024/02/19 14:39:20;;;;;;;22.02;6.20;;;;;;;9.77;100.00;102487.06;10456341;28;20460;-72
2024/02/19 14:44:20;;;;;;;11.25;5.43;;;;;;;9.80;100.00;102483.22;10456501;28;20099;-72
2024/02/19 14:49:21;;;;;;;22.83;6.47;;;;;;;9.73;100.00;102483.81;10457064;28;20063;-74
2024/02/19 14:54:21;;;;;;;14.13;5.63;;;;;;;9.64;100.00;102490.16;10456060;28;20357;-73
2024/02/19 14:59:21;;;;;;;20.92;8.43;;;;;;;9.56;100.00;102476.53;10455571;28;20044;-72
2024/02/19 15:04:22;;;;;;;14.18;6.57;;;;;;;9.77;100.00;102476.25;10454928;28;20048;-72
2024/02/19 15:09:23;;;;;;;18.05;5.90;;;;;;;9.83;100.00;102491.88;10454664;28;20041;-72
2024/02/19 15:14:24;;;;;;;7.25;5.72;;;;;;;9.72;100.00;102483.97;10455064;28;20082;-72
2024/02/19 15:19:24;;;;;;;19.55;7.50;;;;;;;9.85;100.00;102492.53;10454576;28;20037;-73
2024/02/19 15:24:25;;;;;;;20.90;5.50;;;;;;;9.88;100.00;102486.84;10455529;28;20037;-74
2024/02/19 15:29:26;;;;;;;16.98;5.90;;;;;;;9.86;100.00;102496.97;10454529;28;20033;-72
2024/02/19 15:34:28;;;;;;;24.73;7.78;;;;;;;9.87;100.00;102517.59;10454703;28;20064;-72
2024/02/19 15:39:30;;;;;;;32.58;7.88;;;;;;;9.79;100.00;102520.22;10436920;28;20108;-75
2024/02/19 15:44:30;;;;;;;18.95;7.53;;;;;;;9.64;100.00;102527.16;10455921;28;20069;-73
2024/02/19 15:49:31;;;;;;;25.42;7.15;;;;;;;9.67;100.00;102529.56;10463083;28;20483;-72
2024/02/19 15:54:31;;;;;;;14.45;6.22;;;;;;;9.63;100.00;102533.56;10461192;28;20216;-72
2024/02/19 15:59:32;;;;;;;12.88;5.10;;;;;;;9.47;100.00;102537.78;10461793;28;20032;-72
2024/02/19 16:04:32;;;;;;;22.83;5.38;;;;;;;9.31;100.00;102548.38;10462769;28;20028;-74
2024/02/19 16:09:35;;;;;;;20.10;5.70;;;;;;;9.19;100.00;102541.44;10461537;28;20540;-74
2024/02/19 16:14:38;;;;;;;21.52;6.50;;;;;;;9.18;100.00;102555.97;10460258;28;20045;-75
2024/02/19 16:19:39;;;;;;;18.90;6.43;;;;;;;9.19;100.00;102546.84;10461341;28;20128;-74
2024/02/19 16:24:39;;;;;;;22.48;7.53;;;;;;;9.16;100.00;102536.38;10461674;28;20059;-74
2024/02/19 16:29:41;;;;;;;22.23;6.63;;;;;;;9.14;100.00;102541.91;10442558;28;20579;-74
2024/02/19 16:34:42;;;;;;;21.77;5.68;;;;;;;9.13;100.00;102544.78;10459401;28;20068;-75
2024/02/19 16:39:47;;;;;;;21.65;5.88;;;;;;;8.95;100.00;102545.53;10461388;28;20045;-74
2024/02/19 16:44:48;;;;;;;21.75;6.18;;;;;;;8.85;100.00;102547.41;10459397;28;20039;-73
2024/02/19 16:49:48;;;;;;;14.48;6.32;;;;;;;8.75;100.00;102551.97;10458304;28;20063;-75
2024/02/19 16:54:48;;;;;;;21.05;5.25;;;;;;;8.68;100.00;102554.41;10460510;28;20091;-74
2024/02/19 16:59:50;;;;;;;44.42;9.63;;;;;;;8.74;100.00;102566.47;10458437;28;20155;-75
2024/02/19 17:04:51;;;;;;;21.27;6.32;;;;;;;8.78;100.00;102573.31;10457886;28;20174;-75
2024/02/19 17:09:51;;;;;;;29.10;8.05;;;;;;;8.67;100.00;102576.16;10459299;28;20037;-74
2024/02/19 17:14:52;;;;;;;29.80;8.98;;;;;;;8.50;100.00;102583.97;10459804;28;20040;-74
2024/02/19 17:19:53;;;;;;;20.63;7.07;;;;;;;8.33;100.00;102592.75;10459245;28;20413;-74
2024/02/19 17:24:54;;;;;;;16.33;6.28;;;;;;;8.42;100.00;102605.41;10457980;28;20044;-75
2024/02/19 17:29:54;;;;;;;23.77;9.18;;;;;;;8.39;100.00;102613.78;10459026;28;20109;-75
2024/02/19 17:34:55;;;;;;;23.35;7.47;;;;;;;8.37;100.00;102627.41;10458115;28;20461;-75
2024/02/19 17:39:56;;;;;;;31.13;8.95;;;;;;;8.26;100.00;102626.69;10457795;28;20039;-74
2024/02/19 17:44:58;;;;;;;27.77;8.68;;;;;;;8.15;100.00;102627.69;10457653;28;20112;-74
2024/02/19 17:49:58;;;;;;;30.73;8.88;;;;;;;8.23;100.00;102644.03;10456744;28;20033;-74
2024/02/19 17:55:00;;;;;;;31.90;8.20;;;;;;;8.35;100.00;102648.28;10457632;28;20033;-74
2024/02/19 18:00:01;;;;;;;38.40;7.50;;;;;;;8.31;100.00;102643.31;10457860;28;20136;-76
2024/02/19 18:05:02;;;;;;;31.08;8.60;;;;;;;8.41;100.00;102657.72;10457248;28;20069;-74
2024/02/19 18:10:03;;;;;;;23.25;7.95;;;;;;;8.36;100.00;102659.97;10457293;28;20035;-74
2024/02/19 18:15:04;;;;;;;31.95;9.50;;;;;;;8.23;100.00;102667.44;10454460;28;20143;-74
2024/02/19 18:20:06;;;;;;;27.65;7.35;;;;;;;8.07;100.00;102663.47;10456632;28;20033;-75
2024/02/19 18:25:07;;;;;;;31.75;6.72;;;;;;;7.96;100.00;102666.25;10455532;28;20045;-74
2024/02/19 18:30:11;;;;;;;30.83;8.07;;;;;;;7.85;100.00;102675.31;10456031;28;20067;-76
2024/02/19 18:35:12;;;;;;;27.77;6.88;;;;;;;7.87;100.00;102669.75;10454270;28;20053;-74
2024/02/19 18:40:12;;;;;;;43.78;10.13;;;;;;;7.87;100.00;102680.56;10456949;28;20041;-74
2024/02/19 18:45:12;;;;;;;21.17;7.82;;;;;;;7.88;100.00;102688.53;10455035;28;20044;-74
2024/02/19 18:50:14;;;;;;;23.30;8.48;;;;;;;7.93;100.00;102690.78;10456203;28;20045;-74
2024/02/19 18:55:14;;;;;;;43.85;9.63;;;;;;;8.04;100.00;102677.22;10454494;28;20116;-74
2024/02/19 19:00:17;;;;;;;31.58;9.55;;;;;;;8.19;100.00;102683.06;10456073;28;20029;-74
2024/02/19 19:05:17;;;;;;;29.02;8.93;;;;;;;8.37;100.00;102691.34;10455429;28;20041;-73
2024/02/19 19:10:18;;;;;;;28.98;7.85;;;;;;;8.45;100.00;102683.44;10454721;28;20496;-74
2024/02/19 19:15:18;;;;;;;25.13;9.23;;;;;;;8.50;100.00;102688.44;10455507;28;20140;-74
2024/02/19 19:20:19;;;;;;;18.65;7.47;;;;;;;8.46;100.00;102687.00;10459030;28;20033;-73
2024/02/19 19:25:19;;;;;;;19.98;7.70;;;;;;;8.43;100.00;102684.59;10463500;28;20107;-74
2024/02/19 19:30:21;;;;;;;29.73;6.72;;;;;;;8.23;100.00;102695.31;10445143;28;20166;-73
2024/02/19 19:35:23;;;;;;;26.48;7.25;;;;;;;8.19;100.00;102696.56;10462144;28;20072;-73
2024/02/19 19:40:24;;;;;;;22.08;8.65;;;;;;;8.13;100.00;102694.41;10462408;28;20037;-73
2024/02/19 19:45:25;;;;;;;22.73;6.72;;;;;;;7.95;100.00;102706.88;10462607;28;20036;-74
2024/02/19 19:50:26;;;;;;;26.63;9.23;;;;;;;7.79;100.00;102692.03;10462347;28;20044;-74
2024/02/19 19:55:26;;;;;;;25.98;8.23;;;;;;;7.80;100.00;102693.72;10463704;28;20056;-74
2024/02/19 20:00:27;;;;;;;24.35;7.47;;;;;;;7.83;100.00;102708.78;10462812;28;20041;-74
2024/02/19 20:05:27;;;;;;;32.90;9.02;;;;;;;7.88;100.00;102711.91;10463263;28;20444;-74
2024/02/19 20:10:28;;;;;;;39.20;8.30;;;;;;;7.89;100.00;102713.66;10462283;28;20032;-75
2024/02/19 20:15:29;;;;;;;37.53;9.70;;;;;;;8.01;100.00;102707.16;10459638;28;20021;-74
2024/02/19 20:20:29;;;;;;;25.40;9.55;;;;;;;8.10;100.00;102709.06;10444490;28;20357;-75
2024/02/19 20:25:30;;;;;;;17.92;6.40;;;;;;;7.99;100.00;102702.91;10460706;28;20033;-75
2024/02/19 20:30:30;;;;;;;16.42;8.43;;;;;;;7.77;100.00;102704.78;10459371;28;20029;-74
2024/02/19 20:35:31;;;;;;;39.03;8.00;;;;;;;7.61;100.00;102707.97;10443216;28;20110;-80
2024/02/19 20:40:31;;;;;;;32.25;8.05;;;;;;;7.48;100.00;102699.25;10458292;28;20033;-75
2024/02/19 20:45:32;;;;;;;28.63;9.70;;;;;;;7.39;100.00;102708.13;10459936;28;20037;-75
2024/02/19 20:50:33;;;;;;;17.92;8.25;;;;;;;7.32;100.00;102720.44;10459289;28;20041;-75
2024/02/19 20:55:33;;;;;;;32.20;10.20;;;;;;;7.19;100.00;102739.47;10457650;28;20039;-74
2024/02/19 21:00:33;;;;;;;34.60;7.05;;;;;;;7.13;100.00;102742.69;10458896;28;20443;-73
2024/02/19 21:05:34;;;;;;;19.92;5.93;;;;;;;7.10;100.00;102738.41;10458733;28;20049;-79
2024/02/19 21:10:35;;;;;;;25.63;6.65;;;;;;;7.06;100.00;102742.34;10458223;28;20473;-73
2024/02/19 21:15:35;;;;;;;15.77;6.07;;;;;;;6.93;100.00;102749.75;10458789;28;20067;-75
2024/02/19 21:20:36;;;;;;;17.33;6.40;;;;;;;6.89;100.00;102753.66;10458678;28;20070;-75
2024/02/19 21:25:38;;;;;;;19.63;7.07;;;;;;;6.82;100.00;102741.72;10456756;28;20037;-74
2024/02/19 21:30:38;;;;;;;29.63;7.30;;;;;;;6.81;100.00;102748.94;10458984;28;20475;-73
2024/02/19 21:35:38;;;;;;;39.08;7.38;;;;;;;6.79;100.00;102748.19;10458316;28;20045;-73
2024/02/19 21:40:39;;;;;;;36.05;9.23;;;;;;;6.73;100.00;102746.00;10458547;28;20029;-73
2024/02/19 21:45:40;;;;;;;27.15;8.90;;;;;;;6.62;100.00;102756.81;10458188;28;20041;-73
2024/02/19 21:50:41;;;;;;;26.23;7.63;;;;;;;6.53;100.00;102755.72;10457108;28;20029;-74
2024/02/19 21:55:41;;;;;;;35.10;10.25;;;;;;;6.47;100.00;102764.31;10439653;28;20029;-73
2024/02/19 22:00:42;;;;;;;35.45;9.75;;;;;;;6.47;100.00;102772.38;10457215;28;20151;-75
2024/02/19 22:05:42;;;;;;;40.78;9.02;;;;;;;6.44;100.00;102770.78;10456818;28;20486;-75
2024/02/19 22:10:43;;;;;;;30.33;9.57;;;;;;;6.52;100.00;102771.03;10456741;28;20033;-74
2024/02/19 22:15:46;;;;;;;21.02;5.60;;;;;;;6.57;100.00;102770.63;10456624;28;20120;-74
2024/02/19 22:20:48;;;;;;;25.30;9.23;;;;;;;6.60;100.00;102774.94;10456558;28;20048;-73
2024/02/19 22:25:48;;;;;;;41.63;8.68;;;;;;;6.65;100.00;102784.34;10456149;28;20389;-72
2024/02/19 22:30:48;;;;;;;34.88;8.00;;;;;;;6.65;100.00;102778.09;10455301;28;20036;-74
2024/02/19 22:35:49;;;;;;;43.50;9.25;;;;;;;6.64;100.00;102781.78;10455768;28;20477;-74
2024/02/19 22:40:49;;;;;;;28.00;6.53;;;;;;;6.64;100.00;102781.78;10456402;28;20041;-73
2024/02/19 22:45:49;;;;;;;26.75;6.93;;;;;;;6.60;100.00;102781.16;10455683;28;20041;-73